»·PEaware :: N1217J KSBP-KVCV

N1217J :: KSBP-KVCV

FLIGHT INFORMATION

Flight Status: Arrived
Operator: Privately registered:
United States
More flights under this callsign
Pilot: John T. (14556)
Aircraft: PILATUS PC-12 EAGLE
(PC12)
More flights by this aircraft type
Origin: KSBP San Luis Co Regl
United States
Destination: KVCV Socal Logistics
United States
More flights between these airports :: More routes between these airports
Route: +FLW GMN V137 PMD
File this flight plan on PilotEdge
Remarks: / G
Altitude:
(Current/Filed)
15,000ft
Speed:
(Current/Filed)
200kts
Departed: 12-Sep-18 04:03 PM
Arrived: 12-Sep-18 05:06 PM
Distance/Time
Traveled:
165nm/1:02
Distance/Time
To Go:
Arrived

Flight Plot

Page will automatically refresh every two minutes.

Flight plan parsing failed; only flown route is shown


Map Options




Map Legend


Flown Route
Filed Route
Departure Airport
Arrival Airport
Navaid (VOR, NDB)
Fix

Horizontal Profiles

Position Reports

Time Latitude Longitude Heading Altitude Ground
Speed
12-Sep-18 15:52 35.237915 -120.638632 270 179ft 0kts
12-Sep-18 15:53 35.237915 -120.638632 270 179ft 0kts
12-Sep-18 15:54 35.237915 -120.638632 270 179ft 0kts
12-Sep-18 15:55 35.237915 -120.638632 270 179ft 0kts
12-Sep-18 15:56 35.237915 -120.638632 270 179ft 0kts
12-Sep-18 15:57 35.237915 -120.638632 270 179ft 0kts
12-Sep-18 15:58 35.237915 -120.638632 270 179ft 0kts
12-Sep-18 15:59 35.237915 -120.638632 270 179ft 0kts
12-Sep-18 16:00 35.237915 -120.638632 270 179ft 0kts
12-Sep-18 16:01 35.237160 -120.638752 133 179ft 13kts
12-Sep-18 16:02 35.233792 -120.632821 124 179ft 20kts
12-Sep-18 16:03 35.233199 -120.632329 205 179ft 0kts
12-Sep-18 16:04 35.233129 -120.632394 222 179ft 4kts
12-Sep-18 16:05 35.240012 -120.647670 297 548ft 106kts
12-Sep-18 16:06 35.259429 -120.687677 301 2080ft 161kts
12-Sep-18 16:07 35.284764 -120.737223 301 3604ft 180kts
12-Sep-18 16:08 35.316405 -120.784059 350 5095ft 195kts
12-Sep-18 16:09 35.341456 -120.735328 106 6488ft 228kts
12-Sep-18 16:10 35.320780 -120.660965 109 7894ft 234kts
12-Sep-18 16:11 35.299302 -120.585176 109 9305ft 237kts
12-Sep-18 16:12 35.277674 -120.508545 110 10718ft 239kts
12-Sep-18 16:13 35.256190 -120.432602 111 12116ft 239kts
12-Sep-18 16:14 35.236598 -120.363537 111 13386ft 240kts
12-Sep-18 16:15 35.215134 -120.288073 112 14744ft 241kts
12-Sep-18 16:16 35.191507 -120.205778 112 15016ft 267kts
12-Sep-18 16:17 35.167055 -120.120683 112 15014ft 265kts
12-Sep-18 16:18 35.142645 -120.035625 112 15010ft 266kts
12-Sep-18 16:19 35.118580 -119.950427 111 15002ft 267kts
12-Sep-18 16:20 35.094390 -119.865510 112 14995ft 267kts
12-Sep-18 16:21 35.070012 -119.779408 111 14992ft 270kts
12-Sep-18 16:22 35.045347 -119.692416 112 14985ft 273kts
12-Sep-18 16:23 35.020412 -119.605808 111 14978ft 274kts
12-Sep-18 16:24 34.995309 -119.518489 111 14975ft 273kts
12-Sep-18 16:25 34.970229 -119.430841 111 14975ft 273kts
12-Sep-18 16:26 34.945562 -119.345025 112 14970ft 273kts
12-Sep-18 16:27 34.923639 -119.269113 112 14961ft 272kts
12-Sep-18 16:28 34.898675 -119.182773 112 14961ft 272kts
12-Sep-18 16:29 34.873928 -119.097423 112 15009ft 270kts
12-Sep-18 16:30 34.848817 -119.011122 112 15023ft 271kts
12-Sep-18 16:31 34.823692 -118.925030 113 15073ft 271kts
12-Sep-18 16:32 34.799956 -118.837628 107 15122ft 273kts
12-Sep-18 16:33 34.780929 -118.748253 107 15137ft 276kts
12-Sep-18 16:34 34.761816 -118.659214 107 15106ft 277kts
12-Sep-18 16:35 34.742626 -118.570011 107 15065ft 278kts
12-Sep-18 16:36 34.722995 -118.479093 107 15043ft 278kts
12-Sep-18 16:37 34.703197 -118.388354 108 15041ft 278kts
12-Sep-18 16:38 34.684735 -118.304099 108 15035ft 277kts
12-Sep-18 16:39 34.665370 -118.215452 108 15042ft 276kts
12-Sep-18 16:40 34.645657 -118.125452 108 15049ft 276kts
12-Sep-18 16:41 34.630498 -118.036236 97 15052ft 279kts
12-Sep-18 16:42 34.625796 -117.941869 95 15041ft 280kts
12-Sep-18 16:43 34.621493 -117.847792 95 15033ft 280kts
12-Sep-18 16:44 34.616863 -117.753410 95 15040ft 279kts
12-Sep-18 16:45 34.612197 -117.659939 95 15053ft 278kts
12-Sep-18 16:46 34.607454 -117.566166 95 15066ft 278kts
12-Sep-18 16:47 34.602105 -117.465435 96 13152ft 307kts
12-Sep-18 16:48 34.592496 -117.371399 109 10875ft 266kts
12-Sep-18 16:49 34.628781 -117.308406 32 8776ft 243kts
12-Sep-18 16:50 34.679422 -117.262095 32 8016ft 219kts
12-Sep-18 16:51 34.728687 -117.230503 353 8020ft 192kts
12-Sep-18 16:52 34.781634 -117.230722 351 7995ft 190kts
12-Sep-18 16:53 34.837935 -117.231322 352 7418ft 212kts
12-Sep-18 16:54 34.875752 -117.261975 273 6565ft 181kts
12-Sep-18 16:55 34.879122 -117.322304 272 5344ft 175kts
12-Sep-18 16:56 34.881945 -117.381217 272 5011ft 169kts
12-Sep-18 16:57 34.882197 -117.436283 272 4992ft 162kts
12-Sep-18 16:58 34.898822 -117.482902 353 4987ft 192kts
12-Sep-18 16:59 34.907573 -117.432413 149 5001ft 202kts
12-Sep-18 17:00 34.861252 -117.393716 156 5004ft 201kts
12-Sep-18 17:01 34.810062 -117.388643 186 5006ft 169kts
12-Sep-18 17:02 34.764528 -117.388166 187 4461ft 155kts
12-Sep-18 17:03 34.727245 -117.387714 188 4329ft 125kts
12-Sep-18 17:04 34.692945 -117.387467 188 4209ft 126kts
12-Sep-18 17:05 34.660952 -117.387164 189 3613ft 106kts
12-Sep-18 17:06 34.633711 -117.386696 189 3099ft 98kts
12-Sep-18 17:07 34.611655 -117.388963 201 2823ft 55kts
12-Sep-18 17:08 34.608321 -117.388690 85 2830ft 20kts
12-Sep-18 17:09 34.603231 -117.386544 186 2840ft 31kts
12-Sep-18 17:10 34.595543 -117.386426 177 2853ft 22kts
12-Sep-18 17:11 34.594896 -117.385260 86 2855ft 2kts
12-Sep-18 17:12 34.591213 -117.379507 139 2867ft 14kts
12-Sep-18 17:13 34.587617 -117.376081 148 2876ft 0kts

Navigation Log

Ident Type
Flight plan parsing failed, navigation log unavailable